Time;durP1;ratioP1;P1;durP2;ratioP2;P2;SDS_P1;SDS_P2;PMS_P1;PMS_P2;Temp;Humidity;BMP_temperature;BMP_pressure;BME280_temperature;BME280_humidity;BME280_pressure;Samples;Min_cycle;Max_cycle;Signal;HPM_P1;HPM_P2
2021/09/08 00:00:22;;;;;;;7.25;4.68;;;19.60;66.80;;;;;;2046439;28;20028;-95
2021/09/08 00:01:41;;;;;;;6.57;4.45;;;19.60;66.80;;;;;;2047749;29;20048;-96
2021/09/08 00:03:00;;;;;;;6.93;4.95;;;19.60;66.80;;;;;;2055175;28;20039;-95
2021/09/08 00:04:19;;;;;;;7.97;4.35;;;19.60;66.80;;;;;;2041817;29;20035;-96
2021/09/08 00:05:39;;;;;;;6.55;4.32;;;19.60;66.70;;;;;;2038155;28;20039;-96
2021/09/08 00:06:58;;;;;;;6.80;4.30;;;19.60;66.80;;;;;;2039239;29;20036;-96
2021/09/08 00:08:19;;;;;;;6.60;4.20;;;19.60;66.80;;;;;;2036155;29;20850;-96
2021/09/08 00:09:38;;;;;;;6.78;4.35;;;19.60;66.80;;;;;;2035231;29;20079;-95
2021/09/08 00:10:57;;;;;;;6.05;4.28;;;19.60;66.80;;;;;;2039083;29;20039;-96
2021/09/08 00:12:16;;;;;;;6.13;4.38;;;19.60;66.80;;;;;;2040078;29;20044;-95
2021/09/08 00:13:36;;;;;;;6.15;4.15;;;19.60;66.70;;;;;;2037605;29;20036;-95
2021/09/08 00:14:55;;;;;;;5.90;4.00;;;19.60;66.80;;;;;;2043926;29;20027;-94
2021/09/08 00:16:15;;;;;;;6.10;4.13;;;19.60;66.80;;;;;;2035030;29;20510;-95
2021/09/08 00:17:34;;;;;;;6.85;4.57;;;19.60;66.80;;;;;;2053250;28;20019;-95
2021/09/08 00:18:54;;;;;;;5.93;4.40;;;19.60;66.80;;;;;;2044298;29;20040;-95
2021/09/08 00:20:15;;;;;;;6.43;4.32;;;19.50;66.70;;;;;;2037740;29;20531;-95
2021/09/08 00:21:35;;;;;;;5.97;4.10;;;19.50;66.80;;;;;;2035239;29;20522;-95
2021/09/08 00:22:54;;;;;;;6.38;4.03;;;19.50;66.80;;;;;;2029331;29;20462;-94
2021/09/08 00:24:13;;;;;;;7.10;4.43;;;19.50;66.80;;;;;;2037403;29;20470;-94
2021/09/08 00:25:32;;;;;;;6.40;4.30;;;19.40;66.80;;;;;;2048042;29;20035;-95
2021/09/08 00:26:52;;;;;;;8.60;4.88;;;19.40;66.90;;;;;;2045250;29;20027;-95
2021/09/08 00:28:12;;;;;;;5.85;4.05;;;19.40;66.90;;;;;;2035442;29;20036;-94
2021/09/08 00:29:33;;;;;;;6.63;4.35;;;19.40;66.90;;;;;;2023216;29;20036;-96
2021/09/08 00:30:52;;;;;;;6.25;4.10;;;19.40;66.90;;;;;;2036838;29;20031;-95
2021/09/08 00:32:11;;;;;;;6.35;4.45;;;19.40;66.90;;;;;;2040414;29;20075;-94
2021/09/08 00:33:31;;;;;;;6.20;4.43;;;19.40;66.90;;;;;;2036589;29;20059;-95
2021/09/08 00:34:50;;;;;;;6.72;4.47;;;19.40;66.90;;;;;;2040062;29;20039;-95
2021/09/08 00:36:09;;;;;;;6.65;4.00;;;19.30;66.90;;;;;;2032777;29;20442;-95
2021/09/08 00:37:28;;;;;;;5.90;3.95;;;19.40;66.90;;;;;;2041997;29;20037;-95
2021/09/08 00:38:49;;;;;;;7.13;4.20;;;19.30;66.90;;;;;;2035282;29;20044;-95
2021/09/08 00:40:10;;;;;;;6.50;4.47;;;19.30;66.90;;;;;;2042279;29;20110;-95
2021/09/08 00:41:30;;;;;;;;;;;19.30;66.90;;;;;;2041106;29;20047;-95
2021/09/08 00:42:50;;;;;;;6.50;4.13;;;19.30;67.00;;;;;;2054137;28;19910;-96
2021/09/08 00:44:14;;;;;;;6.60;4.13;;;19.30;67.00;;;;;;2051593;28;20063;-95
2021/09/08 00:45:33;;;;;;;6.40;4.30;;;19.20;66.90;;;;;;2051049;28;20027;-95
2021/09/08 00:46:53;;;;;;;7.22;4.63;;;19.20;66.90;;;;;;2044809;28;20052;-94
2021/09/08 00:48:12;;;;;;;6.50;4.40;;;19.20;66.90;;;;;;2047822;29;20043;-95
2021/09/08 00:49:32;;;;;;;6.10;4.32;;;19.20;67.00;;;;;;2044651;29;20032;-95
2021/09/08 00:50:52;;;;;;;6.47;4.38;;;19.30;67.00;;;;;;2051885;29;20035;-95
2021/09/08 00:52:13;;;;;;;6.95;4.72;;;19.20;67.00;;;;;;2047494;29;20031;-94
2021/09/08 00:53:34;;;;;;;6.63;4.43;;;19.30;67.10;;;;;;2047021;29;20027;-94
2021/09/08 00:54:56;;;;;;;7.25;4.55;;;19.20;67.00;;;;;;2033415;29;20093;-95
2021/09/08 00:56:15;;;;;;;7.80;4.45;;;19.20;67.10;;;;;;2045365;28;20042;-95
2021/09/08 00:57:35;;;;;;;8.15;4.40;;;19.20;67.10;;;;;;2045099;29;20035;-95
2021/09/08 00:58:55;;;;;;;6.20;4.25;;;19.20;67.10;;;;;;2050749;29;20050;-95
2021/09/08 01:00:14;;;;;;;6.43;4.20;;;19.20;67.20;;;;;;2050594;29;20051;-95
2021/09/08 01:01:34;;;;;;;6.60;4.70;;;19.20;67.20;;;;;;2061628;28;20050;-87
2021/09/08 01:02:55;;;;;;;6.40;4.25;;;19.20;67.20;;;;;;2047588;28;20275;-94
2021/09/08 01:04:15;;;;;;;6.55;4.55;;;19.20;67.30;;;;;;2044747;28;20024;-93
2021/09/08 01:05:35;;;;;;;8.32;4.80;;;19.10;67.30;;;;;;2049847;29;20032;-92
2021/09/08 01:06:58;;;;;;;7.20;4.85;;;19.10;67.30;;;;;;2049353;28;20031;-94
2021/09/08 01:08:18;;;;;;;7.82;4.78;;;19.10;67.30;;;;;;2052644;28;20035;-95
2021/09/08 01:09:38;;;;;;;6.95;4.50;;;19.00;67.30;;;;;;2048141;28;20043;-95
2021/09/08 01:10:58;;;;;;;6.50;4.18;;;19.00;67.40;;;;;;2039304;29;20474;-95
2021/09/08 01:12:17;;;;;;;7.13;4.30;;;19.00;67.40;;;;;;2048272;28;20035;-95
2021/09/08 01:13:36;;;;;;;7.45;4.80;;;19.00;67.50;;;;;;2050127;29;20518;-94
2021/09/08 01:14:56;;;;;;;7.53;4.90;;;19.00;67.50;;;;;;2032839;29;20044;-95
2021/09/08 01:16:15;;;;;;;6.60;4.30;;;19.00;67.60;;;;;;2037000;29;20032;-95
2021/09/08 01:17:34;;;;;;;7.47;4.68;;;19.00;67.60;;;;;;2041287;29;20040;-95
2021/09/08 01:18:54;;;;;;;7.22;4.70;;;19.00;67.60;;;;;;2041467;29;20054;-95
2021/09/08 01:20:14;;;;;;;7.00;4.57;;;19.00;67.60;;;;;;2039932;29;20549;-95
2021/09/08 01:21:33;;;;;;;7.30;4.82;;;19.00;67.70;;;;;;2046733;28;20035;-95
2021/09/08 01:22:54;;;;;;;6.63;4.57;;;19.00;67.70;;;;;;2051112;29;20035;-95
2021/09/08 01:24:14;;;;;;;6.78;4.57;;;19.00;67.70;;;;;;2037778;29;20115;-95
2021/09/08 01:25:33;;;;;;;7.53;4.90;;;18.90;67.70;;;;;;2046027;29;20036;-96
2021/09/08 01:26:55;;;;;;;6.57;4.70;;;18.90;67.70;;;;;;2041510;29;20279;-95
2021/09/08 01:28:15;;;;;;;8.30;5.40;;;18.90;67.70;;;;;;2043113;28;20485;-95
2021/09/08 01:29:35;;;;;;;7.80;5.32;;;18.90;67.80;;;;;;2048399;29;20502;-95
2021/09/08 01:30:56;;;;;;;7.88;5.35;;;18.90;67.80;;;;;;2040559;29;20043;-95
2021/09/08 01:32:15;;;;;;;8.18;5.20;;;18.90;67.90;;;;;;2047243;28;20043;-94
2021/09/08 01:33:34;;;;;;;7.75;5.03;;;18.90;67.90;;;;;;2052119;28;20031;-84
2021/09/08 01:34:54;;;;;;;7.10;4.70;;;18.80;67.90;;;;;;2056688;28;20035;-90
2021/09/08 01:36:14;;;;;;;7.47;5.28;;;18.80;68.00;;;;;;2037731;29;20036;-95
2021/09/08 01:37:33;;;;;;;8.90;4.93;;;18.80;68.10;;;;;;2048445;29;20114;-94
2021/09/08 01:38:53;;;;;;;7.82;5.00;;;18.80;68.10;;;;;;2046551;29;20036;-96
2021/09/08 01:40:13;;;;;;;7.30;4.68;;;18.80;68.10;;;;;;2042226;28;20048;-94
2021/09/08 01:41:33;;;;;;;6.97;4.55;;;18.80;68.20;;;;;;2061444;28;20039;-94
2021/09/08 01:42:52;;;;;;;7.93;4.78;;;18.70;68.20;;;;;;2046563;29;20036;-94
2021/09/08 01:44:15;;;;;;;7.30;5.07;;;18.70;68.20;;;;;;2040492;28;20047;-96
2021/09/08 01:45:38;;;;;;;7.85;5.00;;;18.70;68.30;;;;;;2040178;29;20414;-95
2021/09/08 01:46:59;;;;;;;7.18;4.75;;;18.70;68.40;;;;;;2054434;28;20034;-94
2021/09/08 01:48:19;;;;;;;6.88;4.82;;;18.70;68.50;;;;;;2033691;29;20040;-96
2021/09/08 01:49:38;;;;;;;7.70;5.25;;;18.70;68.50;;;;;;2048865;28;20034;-95
2021/09/08 01:50:58;;;;;;;6.95;4.63;;;18.60;68.50;;;;;;2048057;29;20507;-95
2021/09/08 01:52:19;;;;;;;8.85;4.70;;;18.60;68.60;;;;;;2041069;29;20027;-95
2021/09/08 01:53:38;;;;;;;;;;;18.60;68.70;;;;;;2040943;29;20067;-95
2021/09/08 01:54:58;;;;;;;8.45;5.07;;;18.60;68.60;;;;;;2036341;29;20287;-95
2021/09/08 01:56:18;;;;;;;8.02;4.65;;;18.60;68.70;;;;;;2037943;29;20044;-95
2021/09/08 01:57:38;;;;;;;7.63;5.10;;;18.50;68.70;;;;;;2040589;29;20028;-96
2021/09/08 01:58:58;;;;;;;7.90;5.13;;;18.50;68.80;;;;;;2044510;29;20039;-95
2021/09/08 02:00:17;;;;;;;7.88;5.28;;;18.50;68.90;;;;;;2046547;29;20044;-93
2021/09/08 02:01:36;;;;;;;7.80;5.45;;;18.50;68.90;;;;;;2052982;28;20087;-90
2021/09/08 02:02:56;;;;;;;8.65;5.47;;;18.50;69.00;;;;;;2047379;29;20028;-89
2021/09/08 02:04:15;;;;;;;8.13;5.35;;;18.50;69.10;;;;;;2037407;29;20024;-93
2021/09/08 02:05:35;;;;;;;9.63;5.20;;;18.50;69.10;;;;;;2032505;29;20032;-95
2021/09/08 02:06:54;;;;;;;8.40;5.15;;;18.50;69.20;;;;;;2038468;29;20451;-96
2021/09/08 02:08:13;;;;;;;7.15;5.10;;;18.40;69.20;;;;;;2036192;29;20036;-96
2021/09/08 02:09:33;;;;;;;8.57;5.68;;;18.40;69.20;;;;;;2039790;29;20039;-95
2021/09/08 02:10:52;;;;;;;8.18;5.88;;;18.40;69.30;;;;;;2039863;29;20036;-95
2021/09/08 02:12:12;;;;;;;8.07;5.50;;;18.40;69.30;;;;;;2031286;29;20036;-96
2021/09/08 02:13:31;;;;;;;8.73;5.82;;;18.30;69.50;;;;;;2027543;29;20040;-96
2021/09/08 02:14:50;;;;;;;8.63;5.70;;;18.40;69.50;;;;;;2043704;29;20031;-96
2021/09/08 02:16:10;;;;;;;8.43;5.32;;;18.30;69.60;;;;;;2032990;29;20036;-95
2021/09/08 02:17:29;;;;;;;7.68;5.40;;;18.30;70.30;;;;;;2032475;29;20040;-96
2021/09/08 02:18:49;;;;;;;9.57;5.97;;;18.30;69.70;;;;;;2041026;29;20036;-95
2021/09/08 02:20:09;;;;;;;9.30;5.72;;;18.30;69.80;;;;;;2040464;29;20451;-95
2021/09/08 02:21:29;;;;;;;9.88;6.25;;;18.20;69.80;;;;;;2035415;29;20047;-96
2021/09/08 02:22:50;;;;;;;7.53;5.68;;;18.30;70.00;;;;;;2046949;28;20102;-95
2021/09/08 02:24:09;;;;;;;9.18;5.63;;;18.20;70.00;;;;;;2044648;29;20102;-95
2021/09/08 02:25:28;;;;;;;7.95;5.72;;;18.20;70.10;;;;;;2034122;29;20032;-95
2021/09/08 02:26:48;;;;;;;8.30;5.72;;;18.20;70.10;;;;;;2040939;29;20035;-95
2021/09/08 02:28:07;;;;;;;7.40;5.20;;;18.10;70.10;;;;;;2024154;29;20072;-95
2021/09/08 02:29:26;;;;;;;9.25;5.85;;;18.10;70.20;;;;;;2025323;29;20530;-94
2021/09/08 02:30:46;;;;;;;8.23;5.50;;;18.10;70.20;;;;;;2045982;28;20043;-96
2021/09/08 02:32:06;;;;;;;8.48;5.75;;;18.10;70.30;;;;;;2055091;28;20027;-95
2021/09/08 02:33:25;;;;;;;9.57;6.00;;;18.10;70.30;;;;;;2031593;29;20535;-96
2021/09/08 02:34:45;;;;;;;7.70;5.60;;;18.10;70.40;;;;;;2035029;29;20039;-95
2021/09/08 02:36:05;;;;;;;7.68;5.45;;;18.10;70.50;;;;;;2040245;29;20071;-95
2021/09/08 02:37:24;;;;;;;7.72;5.28;;;18.00;70.50;;;;;;2041563;29;20438;-96
2021/09/08 02:38:44;;;;;;;8.18;5.70;;;18.00;70.50;;;;;;2042880;29;20040;-95
2021/09/08 02:40:03;;;;;;;8.02;5.28;;;18.00;70.60;;;;;;2052148;28;20046;-95
2021/09/08 02:41:24;;;;;;;8.85;5.78;;;18.00;70.70;;;;;;2037923;29;20048;-96
2021/09/08 02:42:44;;;;;;;8.85;5.95;;;18.00;70.70;;;;;;2040852;29;20036;-96
2021/09/08 02:44:03;;;;;;;9.00;6.53;;;18.00;70.80;;;;;;2039608;29;20039;-95
2021/09/08 02:45:22;;;;;;;9.05;6.22;;;17.90;70.80;;;;;;2043212;29;20518;-96
2021/09/08 02:46:42;;;;;;;8.77;5.97;;;18.00;70.90;;;;;;2048985;29;20035;-96
2021/09/08 02:48:01;;;;;;;9.05;6.43;;;17.90;71.00;;;;;;2038239;29;20546;-95
2021/09/08 02:49:20;;;;;;;7.63;5.38;;;17.90;71.00;;;;;;2051916;28;20042;-95
2021/09/08 02:50:39;;;;;;;8.43;5.80;;;17.90;71.10;;;;;;2055470;28;20034;-95
2021/09/08 02:51:59;;;;;;;8.45;6.07;;;17.90;71.80;;;;;;2039732;29;20035;-96
2021/09/08 02:53:18;;;;;;;8.30;5.88;;;17.80;71.10;;;;;;2044416;29;20072;-96
2021/09/08 02:54:37;;;;;;;8.45;5.45;;;17.90;71.20;;;;;;2027488;29;20040;-96
2021/09/08 02:55:57;;;;;;;8.25;5.47;;;17.90;71.90;;;;;;2047982;28;20425;-95
2021/09/08 02:57:16;;;;;;;8.50;5.63;;;17.90;71.30;;;;;;2042590;29;20036;-96
2021/09/08 02:58:36;;;;;;;7.50;4.95;;;17.90;71.40;;;;;;2036328;29;20032;-96
2021/09/08 02:59:55;;;;;;;8.20;5.60;;;17.80;71.40;;;;;;2035383;29;20577;-95
2021/09/08 03:01:15;;;;;;;8.63;5.53;;;17.80;71.50;;;;;;2050011;28;20039;-96
2021/09/08 03:02:34;;;;;;;9.45;5.82;;;17.80;71.50;;;;;;2042097;29;20035;-96
2021/09/08 03:03:54;;;;;;;9.02;6.25;;;17.80;71.60;;;;;;2056907;28;20101;-95
2021/09/08 03:05:13;;;;;;;9.40;6.25;;;17.80;71.70;;;;;;2042658;29;20067;-96
2021/09/08 03:06:32;;;;;;;8.70;6.10;;;17.70;71.60;;;;;;2047175;28;20506;-95
2021/09/08 03:07:52;;;;;;;9.55;6.28;;;17.80;71.70;;;;;;2042342;29;20111;-96
2021/09/08 03:09:11;;;;;;;9.70;6.28;;;17.80;71.80;;;;;;2043845;29;20028;-95
2021/09/08 03:10:35;;;;;;;9.50;6.25;;;17.70;71.80;;;;;;2042254;29;20430;-96
2021/09/08 03:11:54;;;;;;;9.68;6.07;;;17.70;71.90;;;;;;2040777;29;20054;-95
2021/09/08 03:13:17;;;;;;;8.55;6.00;;;17.70;72.00;;;;;;2039615;29;20032;-95
2021/09/08 03:14:36;;;;;;;8.75;5.78;;;17.70;72.00;;;;;;2045080;28;20031;-96
2021/09/08 03:15:55;;;;;;;8.23;5.90;;;17.70;72.10;;;;;;2048150;28;20035;-96
2021/09/08 03:17:14;;;;;;;9.05;6.00;;;17.60;72.10;;;;;;2044031;29;20507;-96
2021/09/08 03:18:34;;;;;;;8.65;5.90;;;17.70;72.20;;;;;;2039153;29;20036;-95
2021/09/08 03:19:53;;;;;;;9.18;6.20;;;17.60;72.40;;;;;;2031167;29;20032;-96
2021/09/08 03:21:12;;;;;;;8.80;6.00;;;17.60;72.30;;;;;;2031770;29;20067;-96
2021/09/08 03:22:32;;;;;;;10.27;6.35;;;17.60;72.30;;;;;;2045129;29;20031;-95
2021/09/08 03:23:51;;;;;;;9.50;6.43;;;17.60;72.40;;;;;;2038181;29;20036;-95
2021/09/08 03:25:11;;;;;;;7.97;5.65;;;17.60;72.40;;;;;;2035837;29;20032;-95
2021/09/08 03:26:30;;;;;;;9.48;6.15;;;17.60;72.40;;;;;;2038718;29;20032;-96
2021/09/08 03:27:49;;;;;;;9.10;5.80;;;17.60;72.50;;;;;;2037606;28;20387;-96
2021/09/08 03:29:08;;;;;;;7.72;5.55;;;17.60;72.50;;;;;;2040576;29;20039;-95
2021/09/08 03:30:28;;;;;;;9.63;5.65;;;17.60;72.60;;;;;;2036209;29;20027;-95
2021/09/08 03:31:47;;;;;;;10.88;6.60;;;17.60;72.60;;;;;;2038240;28;20117;-96
2021/09/08 03:33:07;;;;;;;8.77;5.43;;;17.60;72.70;;;;;;2043034;29;20075;-95
2021/09/08 03:34:26;;;;;;;10.20;6.25;;;17.50;72.70;;;;;;2047855;28;20016;-94
2021/09/08 03:35:45;;;;;;;8.93;5.93;;;17.50;72.70;;;;;;2039297;29;20016;-93
2021/09/08 03:37:05;;;;;;;9.43;6.30;;;17.50;72.80;;;;;;2046715;28;20036;-96
2021/09/08 03:38:24;;;;;;;8.48;6.00;;;17.50;72.80;;;;;;2038463;29;20044;-95
2021/09/08 03:39:44;;;;;;;8.38;5.70;;;17.50;72.90;;;;;;2061034;28;20019;-93
2021/09/08 03:41:03;;;;;;;8.80;6.13;;;17.50;72.90;;;;;;2046145;28;20036;-92
2021/09/08 03:42:24;;;;;;;9.23;6.10;;;17.50;72.90;;;;;;2044531;28;20059;-92
2021/09/08 03:43:44;;;;;;;9.73;6.30;;;17.50;72.90;;;;;;2053900;28;20023;-89
2021/09/08 03:45:03;;;;;;;9.82;6.13;;;17.50;73.00;;;;;;2054258;28;20024;-90
2021/09/08 03:46:24;;;;;;;7.75;5.50;;;17.40;72.90;;;;;;2041554;28;20487;-96
2021/09/08 03:47:44;;;;;;;10.20;6.28;;;17.50;73.00;;;;;;2046694;29;20067;-96
2021/09/08 03:49:04;;;;;;;8.60;5.70;;;17.50;73.00;;;;;;2036380;29;20040;-96
2021/09/08 03:50:24;;;;;;;8.32;5.47;;;17.50;73.00;;;;;;2051039;28;20051;-96
2021/09/08 03:51:43;;;;;;;9.13;6.37;;;17.50;73.00;;;;;;2036752;29;20037;-96
2021/09/08 03:53:03;;;;;;;8.90;6.07;;;17.50;73.10;;;;;;2048521;28;20251;-95
2021/09/08 03:54:22;;;;;;;11.38;6.63;;;17.40;73.10;;;;;;2053180;28;20031;-95
2021/09/08 03:55:41;;;;;;;8.98;6.25;;;17.50;73.20;;;;;;2048777;29;20043;-95
2021/09/08 03:57:01;;;;;;;8.40;5.78;;;17.40;73.10;;;;;;2041898;29;20498;-95
2021/09/08 03:58:20;;;;;;;9.93;6.50;;;17.40;73.20;;;;;;2044568;29;20047;-96
2021/09/08 03:59:39;;;;;;;9.68;6.55;;;17.40;73.20;;;;;;2046968;29;20035;-96
2021/09/08 04:00:58;;;;;;;8.63;6.05;;;17.40;73.30;;;;;;2041647;29;20039;-95
2021/09/08 04:02:17;;;;;;;9.38;6.10;;;17.40;73.30;;;;;;2039750;29;20095;-95
2021/09/08 04:03:37;;;;;;;9.07;6.43;;;17.40;73.40;;;;;;2049852;29;20036;-95
2021/09/08 04:04:58;;;;;;;9.20;6.57;;;17.40;73.50;;;;;;2055296;28;20039;-95
2021/09/08 04:06:19;;;;;;;;;;;17.30;73.50;;;;;;2048068;28;20047;-90
2021/09/08 04:07:39;;;;;;;8.43;5.68;;;17.30;73.40;;;;;;2057945;28;19910;-95
2021/09/08 04:08:58;;;;;;;9.25;6.38;;;17.30;73.40;;;;;;2057748;28;20046;-96
2021/09/08 04:10:18;;;;;;;8.70;5.90;;;17.30;73.40;;;;;;2041255;29;20044;-96
2021/09/08 04:11:38;;;;;;;8.65;5.97;;;17.30;73.50;;;;;;2033108;29;20110;-96
2021/09/08 04:12:57;;;;;;;8.48;5.68;;;17.30;73.60;;;;;;2033311;29;20044;-92
2021/09/08 04:14:16;;;;;;;11.15;6.82;;;17.30;73.60;;;;;;2036386;29;20417;-94
2021/09/08 04:15:36;;;;;;;11.30;6.45;;;17.30;73.70;;;;;;2048327;29;20039;-94
2021/09/08 04:16:55;;;;;;;10.50;7.07;;;17.30;73.80;;;;;;2057071;28;20027;-94
2021/09/08 04:18:14;;;;;;;10.23;7.20;;;17.30;73.80;;;;;;2053730;29;20271;-93
2021/09/08 04:19:34;;;;;;;9.40;6.32;;;17.20;73.80;;;;;;2040107;29;20036;-94
2021/09/08 04:20:53;;;;;;;10.98;6.85;;;17.20;73.90;;;;;;2030410;29;20083;-94
2021/09/08 04:22:12;;;;;;;10.27;6.90;;;17.20;73.90;;;;;;2040117;28;20039;-93
2021/09/08 04:23:31;;;;;;;9.73;6.38;;;17.20;73.90;;;;;;2046279;29;20060;-94
2021/09/08 04:24:51;;;;;;;9.35;6.53;;;17.20;74.00;;;;;;2053959;29;20711;-93
2021/09/08 04:26:10;;;;;;;8.35;6.13;;;17.20;74.00;;;;;;2051313;28;20024;-89
2021/09/08 04:27:29;;;;;;;10.20;6.70;;;17.20;74.10;;;;;;2054381;29;20079;-90
2021/09/08 04:28:49;;;;;;;9.00;6.50;;;17.10;74.10;;;;;;2050406;28;20047;-93
2021/09/08 04:30:09;;;;;;;8.75;6.32;;;17.20;74.20;;;;;;2036417;29;20036;-91
2021/09/08 04:31:28;;;;;;;9.75;6.55;;;17.10;74.10;;;;;;2052760;28;20058;-91
2021/09/08 04:32:48;;;;;;;8.77;6.22;;;17.20;74.20;;;;;;2058185;28;20035;-92
2021/09/08 04:34:08;;;;;;;8.98;6.57;;;17.10;74.20;;;;;;2044032;29;20032;-92
2021/09/08 04:35:28;;;;;;;9.98;6.07;;;17.10;74.20;;;;;;2040130;29;20043;-93
2021/09/08 04:36:47;;;;;;;8.85;6.40;;;17.10;74.30;;;;;;2047955;29;20020;-93
2021/09/08 04:38:07;;;;;;;10.38;5.97;;;17.10;74.30;;;;;;2057060;28;20038;-92
2021/09/08 04:39:26;;;;;;;9.68;6.90;;;17.10;74.30;;;;;;2047600;29;20043;-93
2021/09/08 04:40:47;;;;;;;9.35;6.40;;;17.10;74.40;;;;;;2038886;28;20150;-91
2021/09/08 04:42:06;;;;;;;9.25;6.13;;;17.10;74.40;;;;;;2035552;29;20039;-91
2021/09/08 04:43:25;;;;;;;9.65;6.70;;;17.10;74.40;;;;;;2042597;28;20133;-92
2021/09/08 04:44:45;;;;;;;9.55;6.63;;;17.10;74.40;;;;;;2042104;29;20035;-93
2021/09/08 04:46:05;;;;;;;9.80;6.30;;;17.10;74.50;;;;;;2051685;28;20046;-95
2021/09/08 04:47:25;;;;;;;8.50;6.30;;;17.10;74.50;;;;;;2042987;29;20498;-95
2021/09/08 04:48:44;;;;;;;8.85;5.97;;;17.10;74.50;;;;;;2032546;29;20044;-94
2021/09/08 04:50:05;;;;;;;12.10;6.72;;;17.10;74.60;;;;;;2023962;29;20044;-96
2021/09/08 04:51:24;;;;;;;8.90;6.20;;;17.10;74.60;;;;;;2031961;29;20154;-96
2021/09/08 04:52:43;;;;;;;9.95;6.75;;;17.10;74.60;;;;;;2035931;29;20055;-94
2021/09/08 04:54:03;;;;;;;9.60;7.00;;;17.00;74.60;;;;;;2038348;29;20430;-95
2021/09/08 04:55:22;;;;;;;11.35;7.70;;;17.10;74.70;;;;;;2042155;29;20027;-96
2021/09/08 04:56:41;;;;;;;10.43;7.00;;;17.00;74.70;;;;;;2052734;28;20043;-96
2021/09/08 04:58:01;;;;;;;10.55;7.40;;;17.00;74.70;;;;;;2039669;29;20086;-95
2021/09/08 04:59:20;;;;;;;9.43;6.80;;;17.00;74.70;;;;;;2047242;28;20046;-92
2021/09/08 05:00:39;;;;;;;11.23;7.15;;;17.00;74.70;;;;;;2040927;29;20271;-93
2021/09/08 05:01:58;;;;;;;9.48;6.70;;;17.10;74.80;;;;;;2036577;29;20040;-96
2021/09/08 05:03:18;;;;;;;9.45;6.53;;;17.00;74.80;;;;;;2036206;29;20110;-90
2021/09/08 05:04:37;;;;;;;9.68;6.50;;;17.00;74.80;;;;;;2051241;28;20769;-92
2021/09/08 05:05:56;;;;;;;11.35;7.05;;;17.00;74.80;;;;;;2043220;29;20075;-91
2021/09/08 05:07:15;;;;;;;9.27;6.30;;;17.00;74.80;;;;;;2052456;28;20042;-93
2021/09/08 05:08:34;;;;;;;9.57;6.57;;;17.00;74.90;;;;;;2050688;29;20101;-91
2021/09/08 05:09:53;;;;;;;9.27;6.40;;;17.00;74.90;;;;;;2040070;29;20039;-94
2021/09/08 05:11:13;;;;;;;9.75;6.55;;;17.00;74.90;;;;;;2053267;29;20035;-93
2021/09/08 05:12:33;;;;;;;8.93;6.45;;;17.00;74.90;;;;;;2035753;29;20056;-93
2021/09/08 05:13:53;;;;;;;10.10;6.95;;;17.00;75.50;;;;;;2047120;29;20091;-95
2021/09/08 05:15:12;;;;;;;11.05;6.97;;;17.00;74.90;;;;;;2058140;28;20474;-95
2021/09/08 05:16:31;;;;;;;10.98;6.63;;;17.00;75.00;;;;;;2042270;29;20031;-94
2021/09/08 05:17:51;;;;;;;10.77;6.80;;;17.00;75.00;;;;;;2031781;29;20032;-95
2021/09/08 05:19:10;;;;;;;9.95;6.72;;;17.00;75.00;;;;;;2036838;29;20044;-96
2021/09/08 05:20:29;;;;;;;8.98;6.22;;;17.00;75.10;;;;;;2029623;29;20036;-96
2021/09/08 05:21:49;;;;;;;9.75;6.68;;;17.00;75.10;;;;;;2033246;29;20044;-96
2021/09/08 05:23:08;;;;;;;10.00;6.95;;;17.00;75.10;;;;;;2043819;29;20032;-95
2021/09/08 05:24:27;;;;;;;9.75;6.57;;;17.00;75.10;;;;;;2044709;28;20031;-96
2021/09/08 05:25:46;;;;;;;9.68;6.97;;;17.00;75.10;;;;;;2049055;29;20031;-96
2021/09/08 05:27:05;;;;;;;10.82;7.20;;;17.00;75.10;;;;;;2043930;29;20036;-95
2021/09/08 05:28:25;;;;;;;8.88;6.32;;;17.00;75.20;;;;;;2049014;28;20035;-96
2021/09/08 05:29:44;;;;;;;9.18;6.78;;;17.00;75.20;;;;;;2051937;29;20090;-96
2021/09/08 05:31:04;;;;;;;9.80;6.60;;;17.00;75.20;;;;;;2032965;29;20103;-95
2021/09/08 05:32:24;;;;;;;9.10;6.50;;;17.00;75.20;;;;;;2027553;29;20032;-95
2021/09/08 05:33:43;;;;;;;9.68;7.00;;;17.00;75.20;;;;;;2043214;29;20035;-96
2021/09/08 05:35:05;;;;;;;8.85;6.15;;;17.00;75.20;;;;;;2052606;29;20031;-96
2021/09/08 05:36:25;;;;;;;9.23;6.50;;;17.00;75.20;;;;;;2042162;29;20055;-95
2021/09/08 05:37:44;;;;;;;9.68;6.35;;;17.00;75.10;;;;;;2039639;29;20059;-95
2021/09/08 05:39:03;;;;;;;8.27;5.65;;;17.00;75.10;;;;;;2043362;28;20036;-89
2021/09/08 05:40:22;;;;;;;9.23;6.47;;;17.00;75.10;;;;;;2057202;28;20011;-84
2021/09/08 05:41:42;;;;;;;10.55;6.25;;;17.00;75.10;;;;;;2057280;28;20027;-92
2021/09/08 05:43:09;;;;;;;8.95;6.50;;;17.00;75.00;;;;;;2057372;29;20067;-96
2021/09/08 05:44:28;;;;;;;9.93;6.80;;;17.10;75.10;;;;;;2049862;28;20027;-94
2021/09/08 05:45:49;;;;;;;9.23;6.40;;;17.10;75.00;;;;;;2055424;28;20023;-94
2021/09/08 05:47:08;;;;;;;10.23;7.18;;;17.20;75.00;;;;;;2065492;28;20046;-92
2021/09/08 05:48:28;;;;;;;9.68;6.53;;;17.10;75.00;;;;;;2068886;28;20027;-82
2021/09/08 05:49:47;;;;;;;8.10;5.95;;;17.20;75.00;;;;;;2060525;28;20552;-95
2021/09/08 05:51:06;;;;;;;8.73;6.28;;;17.20;75.00;;;;;;2057477;28;20055;-89
2021/09/08 05:52:25;;;;;;;10.73;6.53;;;17.20;74.90;;;;;;2057445;28;20031;-94
2021/09/08 05:53:44;;;;;;;8.82;5.85;;;17.20;74.90;;;;;;2057300;28;20039;-96
2021/09/08 05:55:04;;;;;;;9.25;6.22;;;17.20;74.80;;;;;;2065590;28;20031;-87
2021/09/08 05:56:23;;;;;;;9.68;7.20;;;17.30;74.80;;;;;;2060616;28;20015;-89
2021/09/08 05:57:42;;;;;;;10.73;7.00;;;17.30;74.80;;;;;;2057209;28;20020;-84
2021/09/08 05:59:02;;;;;;;8.82;6.35;;;17.30;74.70;;;;;;2057154;28;20046;-86
2021/09/08 06:00:22;;;;;;;8.85;6.45;;;17.30;74.70;;;;;;2057369;28;20019;-84
2021/09/08 06:01:41;;;;;;;9.40;6.82;;;17.30;74.60;;;;;;2049262;28;20020;-84
2021/09/08 06:03:00;;;;;;;10.02;6.97;;;17.40;74.60;;;;;;2054357;28;20015;-83
2021/09/08 06:04:20;;;;;;;9.13;6.68;;;17.40;74.50;;;;;;2065358;28;20007;-90
2021/09/08 06:05:41;;;;;;;9.40;6.78;;;17.40;75.10;;;;;;2052538;28;20084;-92
2021/09/08 06:07:00;;;;;;;10.30;6.85;;;17.40;74.50;;;;;;2062603;28;20023;-89
2021/09/08 06:08:19;;;;;;;9.63;6.53;;;17.40;74.40;;;;;;2060152;28;20019;-93
2021/09/08 06:09:40;;;;;;;10.10;6.93;;;17.50;74.50;;;;;;2049360;28;20019;-80
2021/09/08 06:10:59;;;;;;;10.10;6.80;;;17.50;74.50;;;;;;2049618;29;20023;-85
2021/09/08 06:12:18;;;;;;;9.70;6.78;;;17.50;74.30;;;;;;2065127;28;20014;-84
2021/09/08 06:13:31;;;;;;;8.80;6.30;;;17.50;74.40;;;;;;2243484;23;20054;-87
2021/09/08 06:14:51;;;;;;;9.90;6.32;;;17.50;74.40;;;;;;2052561;28;20027;-85
2021/09/08 06:16:10;;;;;;;9.60;6.43;;;17.60;74.40;;;;;;2052976;28;20031;-87
2021/09/08 06:17:29;;;;;;;9.30;6.72;;;17.60;74.90;;;;;;2054244;28;20031;-87
2021/09/08 06:18:49;;;;;;;9.32;6.45;;;17.60;74.30;;;;;;2053866;28;20149;-86
2021/09/08 06:20:09;;;;;;;9.90;6.65;;;17.60;74.30;;;;;;2051796;28;20051;-87
2021/09/08 06:21:28;;;;;;;10.52;6.80;;;17.60;74.30;;;;;;2054210;28;20038;-86
2021/09/08 06:22:47;;;;;;;10.57;6.90;;;17.60;74.20;;;;;;2049099;28;20035;-88
2021/09/08 06:24:07;;;;;;;10.35;6.93;;;17.60;74.20;;;;;;2054308;28;20034;-87
2021/09/08 06:25:26;;;;;;;11.25;7.35;;;17.60;74.20;;;;;;2053696;28;20067;-86
2021/09/08 06:26:45;;;;;;;9.80;7.15;;;17.70;74.20;;;;;;2060142;28;20034;-87
2021/09/08 06:28:05;;;;;;;10.07;7.22;;;17.70;74.20;;;;;;2044737;29;20114;-87
2021/09/08 06:29:24;;;;;;;10.68;6.95;;;17.70;74.10;;;;;;2052450;28;20023;-88
2021/09/08 06:30:44;;;;;;;9.95;7.32;;;17.70;74.70;;;;;;2040986;29;20586;-89
2021/09/08 06:32:03;;;;;;;10.45;7.28;;;17.70;74.10;;;;;;2059831;28;20039;-87
2021/09/08 06:33:22;;;;;;;10.27;6.80;;;17.70;74.10;;;;;;2057234;28;20039;-89
2021/09/08 06:34:45;;;;;;;10.40;7.13;;;17.80;74.20;;;;;;2057533;28;20031;-88
2021/09/08 06:36:04;;;;;;;9.55;6.55;;;17.80;74.10;;;;;;2036375;29;20032;-88
2021/09/08 06:37:23;;;;;;;10.35;7.25;;;17.80;74.10;;;;;;2041171;29;20035;-89
2021/09/08 06:38:42;;;;;;;10.18;6.55;;;17.80;74.00;;;;;;2045680;28;20031;-88
2021/09/08 06:40:02;;;;;;;8.98;6.70;;;17.90;74.00;;;;;;2058825;28;20035;-89
2021/09/08 06:41:21;;;;;;;12.98;7.10;;;17.90;74.00;;;;;;2056543;28;20478;-88
2021/09/08 06:42:41;;;;;;;10.00;6.93;;;17.90;73.90;;;;;;2051665;28;20497;-88
2021/09/08 06:44:00;;;;;;;12.45;7.78;;;17.90;73.90;;;;;;2062865;28;20039;-88
2021/09/08 06:45:19;;;;;;;10.27;7.30;;;17.90;73.90;;;;;;2057946;28;20050;-88
2021/09/08 06:46:38;;;;;;;11.68;7.65;;;17.90;73.90;;;;;;2054639;28;20034;-88
2021/09/08 06:47:58;;;;;;;10.98;7.40;;;18.00;73.90;;;;;;2046584;29;20036;-89
2021/09/08 06:49:20;;;;;;;10.30;7.70;;;18.00;73.90;;;;;;2051406;28;20141;-87
2021/09/08 06:50:39;;;;;;;10.63;7.20;;;18.00;73.90;;;;;;2062692;28;20097;-87
2021/09/08 06:51:58;;;;;;;12.77;7.70;;;18.00;73.80;;;;;;2065344;28;20038;-88
2021/09/08 06:53:17;;;;;;;10.60;8.15;;;18.10;74.50;;;;;;2042290;28;20032;-88